sensor_id;sensor_type;location;lat;lon;timestamp;pressure;altitude;pressure_sealevel;temperature;humidity
27685;BME280;46113;50.130;8.526;2023-08-08T00:00:02;99101.81;;;9.49;80.61
27685;BME280;46113;50.130;8.526;2023-08-08T00:02:39;99103.59;;;9.49;80.70
27685;BME280;46113;50.130;8.526;2023-08-08T00:05:09;99107.63;;;9.56;80.42
27685;BME280;46113;50.130;8.526;2023-08-08T00:07:37;99108.44;;;9.56;80.61
27685;BME280;46113;50.130;8.526;2023-08-08T00:10:23;99118.00;;;9.43;80.82
27685;BME280;46113;50.130;8.526;2023-08-08T00:12:55;99115.34;;;9.59;80.55
27685;BME280;46113;50.130;8.526;2023-08-08T00:15:26;99114.44;;;9.60;80.48
27685;BME280;46113;50.130;8.526;2023-08-08T00:17:55;99106.25;;;9.65;79.97
27685;BME280;46113;50.130;8.526;2023-08-08T00:20:31;99105.13;;;9.53;80.19
27685;BME280;46113;50.130;8.526;2023-08-08T00:23:11;99098.06;;;9.53;80.23
27685;BME280;46113;50.130;8.526;2023-08-08T00:25:48;99089.66;;;9.47;80.41
27685;BME280;46113;50.130;8.526;2023-08-08T00:28:29;99091.84;;;9.38;80.38
27685;BME280;46113;50.130;8.526;2023-08-08T00:30:59;99092.00;;;9.51;79.89
27685;BME280;46113;50.130;8.526;2023-08-08T00:33:29;99094.75;;;9.50;79.64
27685;BME280;46113;50.130;8.526;2023-08-08T00:36:07;99093.13;;;9.31;80.65
27685;BME280;46113;50.130;8.526;2023-08-08T00:38:47;99098.41;;;9.31;80.33
27685;BME280;46113;50.130;8.526;2023-08-08T00:41:25;99100.13;;;9.32;80.53
27685;BME280;46113;50.130;8.526;2023-08-08T00:43:57;99103.25;;;9.23;80.83
27685;BME280;46113;50.130;8.526;2023-08-08T00:46:38;99101.72;;;9.19;80.81
27685;BME280;46113;50.130;8.526;2023-08-08T00:49:22;99101.28;;;9.26;81.28
27685;BME280;46113;50.130;8.526;2023-08-08T00:51:55;99091.59;;;9.43;80.04
27685;BME280;46113;50.130;8.526;2023-08-08T00:54:32;99089.66;;;9.47;79.61
27685;BME280;46113;50.130;8.526;2023-08-08T00:57:08;99083.41;;;9.48;79.70
27685;BME280;46113;50.130;8.526;2023-08-08T00:59:44;99089.13;;;9.40;79.59
27685;BME280;46113;50.130;8.526;2023-08-08T01:02:27;99086.13;;;9.46;79.38
27685;BME280;46113;50.130;8.526;2023-08-08T01:05:08;99087.00;;;9.47;79.38
27685;BME280;46113;50.130;8.526;2023-08-08T01:07:56;99084.44;;;9.45;79.54
27685;BME280;46113;50.130;8.526;2023-08-08T01:10:41;99081.88;;;9.43;79.49
27685;BME280;46113;50.130;8.526;2023-08-08T01:13:29;99073.56;;;9.35;79.66
27685;BME280;46113;50.130;8.526;2023-08-08T01:16:17;99072.09;;;9.29;79.56
27685;BME280;46113;50.130;8.526;2023-08-08T01:18:56;99073.28;;;9.24;80.19
27685;BME280;46113;50.130;8.526;2023-08-08T01:21:33;99079.69;;;9.20;79.87
27685;BME280;46113;50.130;8.526;2023-08-08T01:24:21;99072.69;;;9.35;79.78
27685;BME280;46113;50.130;8.526;2023-08-08T01:26:50;99074.06;;;9.26;80.14
27685;BME280;46113;50.130;8.526;2023-08-08T01:29:17;99063.66;;;9.23;80.01
27685;BME280;46113;50.130;8.526;2023-08-08T01:31:43;99069.81;;;9.23;79.54
27685;BME280;46113;50.130;8.526;2023-08-08T01:34:14;99059.00;;;9.12;79.84
27685;BME280;46113;50.130;8.526;2023-08-08T01:36:51;99057.03;;;9.15;79.47
27685;BME280;46113;50.130;8.526;2023-08-08T01:39:30;99060.09;;;9.08;80.01
27685;BME280;46113;50.130;8.526;2023-08-08T01:41:59;99052.19;;;9.08;80.03
27685;BME280;46113;50.130;8.526;2023-08-08T01:44:28;99050.22;;;9.11;79.40
27685;BME280;46113;50.130;8.526;2023-08-08T01:46:59;99057.69;;;9.03;79.88
27685;BME280;46113;50.130;8.526;2023-08-08T01:49:32;99043.00;;;8.65;80.47
27685;BME280;46113;50.130;8.526;2023-08-08T01:51:59;99041.00;;;8.86;80.00
27685;BME280;46113;50.130;8.526;2023-08-08T01:54:27;99039.13;;;8.88;79.88
27685;BME280;46113;50.130;8.526;2023-08-08T01:56:54;99046.63;;;8.80;80.62
27685;BME280;46113;50.130;8.526;2023-08-08T01:59:21;99046.13;;;8.89;79.65
27685;BME280;46113;50.130;8.526;2023-08-08T02:01:48;99041.31;;;8.64;80.09
27685;BME280;46113;50.130;8.526;2023-08-08T02:04:15;99045.16;;;8.74;80.18
27685;BME280;46113;50.130;8.526;2023-08-08T02:06:46;99036.72;;;8.68;80.03
27685;BME280;46113;50.130;8.526;2023-08-08T02:09:12;99043.38;;;8.75;79.45
27685;BME280;46113;50.130;8.526;2023-08-08T02:11:42;99040.81;;;8.73;79.76
27685;BME280;46113;50.130;8.526;2023-08-08T02:14:09;99040.38;;;8.65;79.91
27685;BME280;46113;50.130;8.526;2023-08-08T02:16:39;99031.44;;;8.68;79.31
27685;BME280;46113;50.130;8.526;2023-08-08T02:19:09;99039.16;;;8.55;79.78
27685;BME280;46113;50.130;8.526;2023-08-08T02:21:36;99038.53;;;8.49;80.17
27685;BME280;46113;50.130;8.526;2023-08-08T02:24:03;99037.84;;;8.46;80.51
27685;BME280;46113;50.130;8.526;2023-08-08T02:26:30;99039.56;;;8.29;80.81
27685;BME280;46113;50.130;8.526;2023-08-08T02:28:57;99037.97;;;8.43;80.21
27685;BME280;46113;50.130;8.526;2023-08-08T02:31:24;99037.84;;;8.46;80.03
27685;BME280;46113;50.130;8.526;2023-08-08T02:33:53;99031.66;;;8.47;79.63
27685;BME280;46113;50.130;8.526;2023-08-08T02:36:25;99033.72;;;8.40;79.33
27685;BME280;46113;50.130;8.526;2023-08-08T02:38:55;99040.78;;;8.40;79.21
27685;BME280;46113;50.130;8.526;2023-08-08T02:41:34;99034.78;;;8.20;80.40
27685;BME280;46113;50.130;8.526;2023-08-08T02:44:03;99036.94;;;8.29;79.84
27685;BME280;46113;50.130;8.526;2023-08-08T02:46:33;99040.19;;;8.34;79.40
27685;BME280;46113;50.130;8.526;2023-08-08T02:49:05;99041.19;;;8.32;79.63
27685;BME280;46113;50.130;8.526;2023-08-08T02:51:32;99042.03;;;8.32;79.16
27685;BME280;46113;50.130;8.526;2023-08-08T02:53:59;99033.69;;;8.24;80.35
27685;BME280;46113;50.130;8.526;2023-08-08T02:56:33;99037.69;;;8.31;79.79
27685;BME280;46113;50.130;8.526;2023-08-08T02:59:00;99036.31;;;8.24;79.90
27685;BME280;46113;50.130;8.526;2023-08-08T03:01:27;99043.00;;;8.14;79.66
27685;BME280;46113;50.130;8.526;2023-08-08T03:03:56;99040.28;;;7.97;80.00
27685;BME280;46113;50.130;8.526;2023-08-08T03:06:27;99043.47;;;8.04;80.05
27685;BME280;46113;50.130;8.526;2023-08-08T03:09:02;99045.47;;;8.17;79.35
27685;BME280;46113;50.130;8.526;2023-08-08T03:11:29;99051.34;;;8.22;78.93
27685;BME280;46113;50.130;8.526;2023-08-08T03:13:56;99053.53;;;8.14;78.73
27685;BME280;46113;50.130;8.526;2023-08-08T03:16:24;99051.75;;;8.14;79.42
27685;BME280;46113;50.130;8.526;2023-08-08T03:18:53;99056.94;;;8.16;79.53
27685;BME280;46113;50.130;8.526;2023-08-08T03:21:21;99049.72;;;8.19;78.98
27685;BME280;46113;50.130;8.526;2023-08-08T03:23:49;99053.75;;;8.27;78.84
27685;BME280;46113;50.130;8.526;2023-08-08T03:26:21;99052.56;;;8.32;79.14
27685;BME280;46113;50.130;8.526;2023-08-08T03:28:48;99055.69;;;8.41;78.85
27685;BME280;46113;50.130;8.526;2023-08-08T03:31:21;99061.50;;;8.47;79.05
27685;BME280;46113;50.130;8.526;2023-08-08T03:33:48;99063.06;;;8.52;78.88
27685;BME280;46113;50.130;8.526;2023-08-08T03:36:15;99056.78;;;8.54;79.24
27685;BME280;46113;50.130;8.526;2023-08-08T03:38:42;99052.13;;;8.59;79.02
27685;BME280;46113;50.130;8.526;2023-08-08T03:41:13;99053.72;;;8.62;78.99
27685;BME280;46113;50.130;8.526;2023-08-08T03:43:40;99048.63;;;8.59;79.11
27685;BME280;46113;50.130;8.526;2023-08-08T03:46:07;99045.84;;;8.27;78.80
27685;BME280;46113;50.130;8.526;2023-08-08T03:48:42;99048.03;;;8.36;79.41
27685;BME280;46113;50.130;8.526;2023-08-08T03:51:09;99049.50;;;8.24;79.14
27685;BME280;46113;50.130;8.526;2023-08-08T03:53:36;99051.66;;;8.16;78.99
27685;BME280;46113;50.130;8.526;2023-08-08T03:56:05;99050.03;;;8.31;79.12
27685;BME280;46113;50.130;8.526;2023-08-08T03:58:33;99045.47;;;8.17;78.54
27685;BME280;46113;50.130;8.526;2023-08-08T04:01:00;99053.69;;;8.10;78.74
27685;BME280;46113;50.130;8.526;2023-08-08T04:03:27;99048.97;;;8.17;78.72
27685;BME280;46113;50.130;8.526;2023-08-08T04:05:55;99047.63;;;8.26;78.46
27685;BME280;46113;50.130;8.526;2023-08-08T04:08:22;99050.22;;;8.10;78.61
27685;BME280;46113;50.130;8.526;2023-08-08T04:10:53;99048.63;;;8.23;78.62
27685;BME280;46113;50.130;8.526;2023-08-08T04:13:24;99049.31;;;8.27;78.13
27685;BME280;46113;50.130;8.526;2023-08-08T04:15:54;99043.91;;;8.30;78.24
27685;BME280;46113;50.130;8.526;2023-08-08T04:18:21;99040.34;;;8.31;78.16
27685;BME280;46113;50.130;8.526;2023-08-08T04:20:47;99042.91;;;8.33;78.74
27685;BME280;46113;50.130;8.526;2023-08-08T04:23:14;99033.38;;;8.30;78.62
27685;BME280;46113;50.130;8.526;2023-08-08T04:29:13;99041.63;;;8.40;78.24
27685;BME280;46113;50.130;8.526;2023-08-08T04:31:58;99032.03;;;8.39;78.71
27685;BME280;46113;50.130;8.526;2023-08-08T04:35:06;99037.28;;;8.39;78.87
27685;BME280;46113;50.130;8.526;2023-08-08T04:42:20;99036.69;;;8.52;77.94
27685;BME280;46113;50.130;8.526;2023-08-08T04:44:46;99038.00;;;8.60;78.30
27685;BME280;46113;50.130;8.526;2023-08-08T04:47:13;99041.91;;;8.69;77.85
27685;BME280;46113;50.130;8.526;2023-08-08T04:49:40;99037.56;;;8.68;77.87
27685;BME280;46113;50.130;8.526;2023-08-08T04:52:06;99036.91;;;8.65;77.75
27685;BME280;46113;50.130;8.526;2023-08-08T04:54:33;99035.81;;;8.69;77.98
27685;BME280;46113;50.130;8.526;2023-08-08T04:57:00;99039.34;;;8.68;78.27
27685;BME280;46113;50.130;8.526;2023-08-08T04:59:27;99036.22;;;8.77;78.55
27685;BME280;46113;50.130;8.526;2023-08-08T05:01:53;99040.75;;;8.91;78.76
27685;BME280;46113;50.130;8.526;2023-08-08T05:04:20;99031.50;;;9.00;78.93
27685;BME280;46113;50.130;8.526;2023-08-08T05:06:47;99025.00;;;9.06;79.18
27685;BME280;46113;50.130;8.526;2023-08-08T05:09:13;99029.53;;;9.03;78.29
27685;BME280;46113;50.130;8.526;2023-08-08T05:11:40;99027.41;;;9.10;79.21
27685;BME280;46113;50.130;8.526;2023-08-08T05:14:06;99028.53;;;9.22;78.73
27685;BME280;46113;50.130;8.526;2023-08-08T05:16:33;99019.88;;;9.51;78.63
27685;BME280;46113;50.130;8.526;2023-08-08T05:19:00;99024.72;;;9.59;77.89
27685;BME280;46113;50.130;8.526;2023-08-08T05:21:26;99025.84;;;9.54;78.11
27685;BME280;46113;50.130;8.526;2023-08-08T05:23:53;99025.88;;;9.69;77.16
27685;BME280;46113;50.130;8.526;2023-08-08T05:26:19;99022.84;;;9.77;76.07
27685;BME280;46113;50.130;8.526;2023-08-08T05:28:46;99025.59;;;9.74;76.57
27685;BME280;46113;50.130;8.526;2023-08-08T05:31:13;99019.25;;;10.23;76.03
27685;BME280;46113;50.130;8.526;2023-08-08T05:33:40;99018.91;;;10.58;76.54
27685;BME280;46113;50.130;8.526;2023-08-08T05:36:06;99015.56;;;10.69;76.46
27685;BME280;46113;50.130;8.526;2023-08-08T05:38:33;99016.28;;;10.86;74.72
27685;BME280;46113;50.130;8.526;2023-08-08T05:41:02;99019.25;;;10.96;74.57
27685;BME280;46113;50.130;8.526;2023-08-08T05:43:29;99018.75;;;10.89;74.39
27685;BME280;46113;50.130;8.526;2023-08-08T05:45:56;99015.44;;;11.14;74.66
27685;BME280;46113;50.130;8.526;2023-08-08T05:48:23;99020.84;;;11.13;74.08
27685;BME280;46113;50.130;8.526;2023-08-08T05:50:50;99029.28;;;11.33;74.42
27685;BME280;46113;50.130;8.526;2023-08-08T05:53:16;99034.59;;;11.33;73.99
27685;BME280;46113;50.130;8.526;2023-08-08T05:55:43;99036.44;;;10.88;71.48
27685;BME280;46113;50.130;8.526;2023-08-08T05:58:10;99038.16;;;10.75;73.51
27685;BME280;46113;50.130;8.526;2023-08-08T06:00:37;99035.31;;;10.78;72.43
27685;BME280;46113;50.130;8.526;2023-08-08T06:03:04;99033.44;;;10.95;73.02
27685;BME280;46113;50.130;8.526;2023-08-08T06:05:31;99027.88;;;11.27;72.72
27685;BME280;46113;50.130;8.526;2023-08-08T06:07:57;99029.47;;;11.30;71.73
27685;BME280;46113;50.130;8.526;2023-08-08T06:10:24;99030.94;;;11.48;70.28
27685;BME280;46113;50.130;8.526;2023-08-08T06:12:51;99025.47;;;11.64;69.71
27685;BME280;46113;50.130;8.526;2023-08-08T06:15:18;99023.03;;;11.61;70.65
27685;BME280;46113;50.130;8.526;2023-08-08T06:17:45;99024.19;;;11.57;71.10
27685;BME280;46113;50.130;8.526;2023-08-08T06:20:12;99025.91;;;11.71;70.95
27685;BME280;46113;50.130;8.526;2023-08-08T06:22:40;99027.28;;;12.04;70.49
27685;BME280;46113;50.130;8.526;2023-08-08T06:25:07;99024.81;;;12.01;69.41
27685;BME280;46113;50.130;8.526;2023-08-08T06:27:34;99021.75;;;12.07;68.75
27685;BME280;46113;50.130;8.526;2023-08-08T06:30:01;99024.97;;;12.39;69.00
27685;BME280;46113;50.130;8.526;2023-08-08T06:32:29;99018.59;;;12.54;68.13
27685;BME280;46113;50.130;8.526;2023-08-08T06:34:56;99018.97;;;12.87;69.17
27685;BME280;46113;50.130;8.526;2023-08-08T06:37:23;99019.53;;;12.79;66.37
27685;BME280;46113;50.130;8.526;2023-08-08T06:39:49;99014.16;;;13.05;66.40
27685;BME280;46113;50.130;8.526;2023-08-08T06:42:16;99016.13;;;13.28;67.36
27685;BME280;46113;50.130;8.526;2023-08-08T06:44:53;99007.59;;;13.35;66.28
27685;BME280;46113;50.130;8.526;2023-08-08T06:47:20;99005.59;;;13.26;64.21
27685;BME280;46113;50.130;8.526;2023-08-08T06:49:47;99008.94;;;13.17;63.96
27685;BME280;46113;50.130;8.526;2023-08-08T06:52:13;99001.47;;;13.22;63.60
27685;BME280;46113;50.130;8.526;2023-08-08T06:54:40;99001.53;;;13.33;62.77
27685;BME280;46113;50.130;8.526;2023-08-08T06:57:07;99002.06;;;13.74;64.22
27685;BME280;46113;50.130;8.526;2023-08-08T06:59:33;98994.03;;;13.99;62.00
27685;BME280;46113;50.130;8.526;2023-08-08T07:02:00;98988.66;;;14.12;62.22
27685;BME280;46113;50.130;8.526;2023-08-08T07:04:27;98991.56;;;14.09;60.12
27685;BME280;46113;50.130;8.526;2023-08-08T07:06:54;98990.50;;;14.34;60.80
27685;BME280;46113;50.130;8.526;2023-08-08T07:09:20;98996.78;;;14.22;61.25
27685;BME280;46113;50.130;8.526;2023-08-08T07:11:48;98984.19;;;14.12;61.03
27685;BME280;46113;50.130;8.526;2023-08-08T07:14:14;98991.56;;;14.20;62.05
27685;BME280;46113;50.130;8.526;2023-08-08T07:16:41;98991.94;;;14.38;61.12
27685;BME280;46113;50.130;8.526;2023-08-08T07:19:08;98990.84;;;14.41;59.24
27685;BME280;46113;50.130;8.526;2023-08-08T07:21:34;98986.28;;;14.54;60.65
27685;BME280;46113;50.130;8.526;2023-08-08T07:24:01;98999.56;;;14.77;60.53
27685;BME280;46113;50.130;8.526;2023-08-08T07:26:29;98985.34;;;15.11;60.56
27685;BME280;46113;50.130;8.526;2023-08-08T07:28:56;98990.84;;;14.87;59.71
27685;BME280;46113;50.130;8.526;2023-08-08T07:31:23;98998.47;;;14.80;56.93
27685;BME280;46113;50.130;8.526;2023-08-08T07:33:49;98989.16;;;14.97;57.19
27685;BME280;46113;50.130;8.526;2023-08-08T07:36:16;98989.38;;;14.82;57.04
27685;BME280;46113;50.130;8.526;2023-08-08T07:38:43;98996.75;;;14.90;57.26
27685;BME280;46113;50.130;8.526;2023-08-08T07:41:10;98991.56;;;15.00;56.50
27685;BME280;46113;50.130;8.526;2023-08-08T07:43:36;98985.25;;;15.13;56.97
27685;BME280;46113;50.130;8.526;2023-08-08T07:46:03;98991.38;;;15.24;54.28
27685;BME280;46113;50.130;8.526;2023-08-08T07:48:30;98988.97;;;15.21;57.09
27685;BME280;46113;50.130;8.526;2023-08-08T07:50:57;98983.72;;;15.64;54.95
27685;BME280;46113;50.130;8.526;2023-08-08T07:53:24;98986.03;;;15.90;55.04
27685;BME280;46113;50.130;8.526;2023-08-08T07:55:51;98983.78;;;15.20;52.03
27685;BME280;46113;50.130;8.526;2023-08-08T07:58:18;98979.03;;;15.89;54.43
27685;BME280;46113;50.130;8.526;2023-08-08T08:00:44;98979.66;;;15.81;52.68
27685;BME280;46113;50.130;8.526;2023-08-08T08:03:11;98977.84;;;16.03;53.56
27685;BME280;46113;50.130;8.526;2023-08-08T08:05:38;98979.97;;;16.40;53.89
27685;BME280;46113;50.130;8.526;2023-08-08T08:08:05;98970.59;;;16.36;50.27
27685;BME280;46113;50.130;8.526;2023-08-08T08:10:32;98986.25;;;16.61;51.09
27685;BME280;46113;50.130;8.526;2023-08-08T08:12:58;98969.38;;;16.60;48.99
27685;BME280;46113;50.130;8.526;2023-08-08T08:15:26;98977.31;;;17.23;48.50
27685;BME280;46113;50.130;8.526;2023-08-08T08:17:52;98963.84;;;18.21;46.19
27685;BME280;46113;50.130;8.526;2023-08-08T08:20:20;98971.28;;;18.37;46.75
27685;BME280;46113;50.130;8.526;2023-08-08T08:22:46;98967.09;;;18.63;44.06
27685;BME280;46113;50.130;8.526;2023-08-08T08:25:14;98970.78;;;18.14;45.49
27685;BME280;46113;50.130;8.526;2023-08-08T08:27:41;98968.44;;;17.42;44.32
27685;BME280;46113;50.130;8.526;2023-08-08T08:30:08;98964.94;;;17.61;46.41
27685;BME280;46113;50.130;8.526;2023-08-08T08:32:40;98960.66;;;17.98;44.25
27685;BME280;46113;50.130;8.526;2023-08-08T08:35:07;98953.41;;;18.28;45.28
27685;BME280;46113;50.130;8.526;2023-08-08T08:37:34;98950.94;;;18.55;46.61
27685;BME280;46113;50.130;8.526;2023-08-08T08:40:01;98952.25;;;20.14;45.39
27685;BME280;46113;50.130;8.526;2023-08-08T08:42:32;98953.03;;;21.69;41.38
27685;BME280;46113;50.130;8.526;2023-08-08T08:45:01;98955.00;;;21.17;39.40
27685;BME280;46113;50.130;8.526;2023-08-08T08:47:29;98962.47;;;21.56;38.86
27685;BME280;46113;50.130;8.526;2023-08-08T08:49:57;98956.22;;;21.39;37.74
27685;BME280;46113;50.130;8.526;2023-08-08T08:52:24;98955.03;;;21.83;38.91
27685;BME280;46113;50.130;8.526;2023-08-08T08:54:52;98954.22;;;21.75;39.43
27685;BME280;46113;50.130;8.526;2023-08-08T08:57:22;98955.03;;;21.59;37.85
27685;BME280;46113;50.130;8.526;2023-08-08T08:59:54;98957.13;;;20.97;39.28
27685;BME280;46113;50.130;8.526;2023-08-08T09:02:21;98953.38;;;21.41;40.97
27685;BME280;46113;50.130;8.526;2023-08-08T09:04:49;98951.84;;;21.55;38.18
27685;BME280;46113;50.130;8.526;2023-08-08T09:07:19;98940.88;;;22.95;39.51
27685;BME280;46113;50.130;8.526;2023-08-08T09:09:47;98949.22;;;23.78;33.89
27685;BME280;46113;50.130;8.526;2023-08-08T09:12:16;98941.16;;;24.24;32.83
27685;BME280;46113;50.130;8.526;2023-08-08T09:14:42;98934.78;;;26.08;31.94
27685;BME280;46113;50.130;8.526;2023-08-08T09:17:13;98942.59;;;27.56;30.77
27685;BME280;46113;50.130;8.526;2023-08-08T09:19:44;98942.78;;;27.74;30.75
27685;BME280;46113;50.130;8.526;2023-08-08T09:22:12;98944.69;;;25.21;29.98
27685;BME280;46113;50.130;8.526;2023-08-08T09:24:40;98954.06;;;24.52;34.41
27685;BME280;46113;50.130;8.526;2023-08-08T09:27:08;98946.38;;;23.57;35.18
27685;BME280;46113;50.130;8.526;2023-08-08T09:29:37;98951.66;;;22.63;36.35
27685;BME280;46113;50.130;8.526;2023-08-08T09:32:05;98943.28;;;21.93;38.70
27685;BME280;46113;50.130;8.526;2023-08-08T09:34:32;98951.94;;;20.52;37.69
27685;BME280;46113;50.130;8.526;2023-08-08T09:36:59;98941.44;;;20.67;40.08
27685;BME280;46113;50.130;8.526;2023-08-08T09:39:28;98942.72;;;19.75;40.50
27685;BME280;46113;50.130;8.526;2023-08-08T09:41:57;98946.00;;;20.40;40.49
27685;BME280;46113;50.130;8.526;2023-08-08T09:44:26;98934.78;;;20.10;42.06
27685;BME280;46113;50.130;8.526;2023-08-08T09:46:54;98939.03;;;19.94;41.78
27685;BME280;46113;50.130;8.526;2023-08-08T09:49:21;98932.09;;;19.83;40.36
27685;BME280;46113;50.130;8.526;2023-08-08T09:51:51;98924.19;;;20.43;42.49
27685;BME280;46113;50.130;8.526;2023-08-08T09:54:19;98922.69;;;19.06;42.55
27685;BME280;46113;50.130;8.526;2023-08-08T09:56:49;98920.63;;;19.55;41.16
27685;BME280;46113;50.130;8.526;2023-08-08T09:59:17;98923.00;;;19.40;43.55
27685;BME280;46113;50.130;8.526;2023-08-08T10:01:45;98915.69;;;19.68;42.73
27685;BME280;46113;50.130;8.526;2023-08-08T10:04:13;98923.34;;;19.18;41.35
27685;BME280;46113;50.130;8.526;2023-08-08T10:06:40;98915.03;;;19.48;44.40
27685;BME280;46113;50.130;8.526;2023-08-08T10:09:07;98921.81;;;20.05;44.39
27685;BME280;46113;50.130;8.526;2023-08-08T10:11:34;98916.25;;;19.98;41.66
27685;BME280;46113;50.130;8.526;2023-08-08T10:14:02;98926.00;;;19.37;43.69
27685;BME280;46113;50.130;8.526;2023-08-08T10:16:33;98922.59;;;19.53;44.47
27685;BME280;46113;50.130;8.526;2023-08-08T10:19:02;98928.06;;;19.43;40.03
27685;BME280;46113;50.130;8.526;2023-08-08T10:21:43;98927.69;;;19.19;41.53
27685;BME280;46113;50.130;8.526;2023-08-08T10:24:10;98914.50;;;19.44;42.38
27685;BME280;46113;50.130;8.526;2023-08-08T10:29:20;98922.59;;;18.98;42.97
27685;BME280;46113;50.130;8.526;2023-08-08T10:31:58;98921.81;;;19.34;41.75
27685;BME280;46113;50.130;8.526;2023-08-08T10:34:43;98919.34;;;18.58;40.66
27685;BME280;46113;50.130;8.526;2023-08-08T10:37:11;98925.28;;;18.52;41.05
27685;BME280;46113;50.130;8.526;2023-08-08T10:39:54;98927.41;;;18.76;44.40
27685;BME280;46113;50.130;8.526;2023-08-08T10:42:23;98923.41;;;18.62;42.67
27685;BME280;46113;50.130;8.526;2023-08-08T10:44:55;98917.69;;;18.09;41.31
27685;BME280;46113;50.130;8.526;2023-08-08T10:47:26;98928.06;;;18.60;44.20
27685;BME280;46113;50.130;8.526;2023-08-08T10:50:03;98930.09;;;18.95;43.39
27685;BME280;46113;50.130;8.526;2023-08-08T10:52:31;98926.44;;;18.96;43.40
27685;BME280;46113;50.130;8.526;2023-08-08T10:54:58;98924.97;;;19.56;42.97
27685;BME280;46113;50.130;8.526;2023-08-08T10:57:26;98930.66;;;19.71;41.71
27685;BME280;46113;50.130;8.526;2023-08-08T10:59:53;98916.94;;;20.01;43.06
27685;BME280;46113;50.130;8.526;2023-08-08T11:02:21;98926.72;;;19.65;42.60
27685;BME280;46113;50.130;8.526;2023-08-08T11:04:48;98931.69;;;19.15;39.13
27685;BME280;46113;50.130;8.526;2023-08-08T11:07:17;98922.25;;;19.11;41.68
27685;BME280;46113;50.130;8.526;2023-08-08T11:09:44;98923.25;;;19.91;43.61
27685;BME280;46113;50.130;8.526;2023-08-08T11:12:14;98914.06;;;19.76;40.90
27685;BME280;46113;50.130;8.526;2023-08-08T11:14:41;98917.22;;;19.26;40.44
27685;BME280;46113;50.130;8.526;2023-08-08T11:17:10;98919.91;;;18.98;43.43
27685;BME280;46113;50.130;8.526;2023-08-08T11:19:40;98919.91;;;19.26;42.74
27685;BME280;46113;50.130;8.526;2023-08-08T11:22:10;98925.31;;;19.16;41.82
27685;BME280;46113;50.130;8.526;2023-08-08T11:24:40;98915.72;;;19.32;38.41
27685;BME280;46113;50.130;8.526;2023-08-08T11:27:07;98917.25;;;18.98;40.46
27685;BME280;46113;50.130;8.526;2023-08-08T11:29:34;98912.84;;;19.43;38.98
27685;BME280;46113;50.130;8.526;2023-08-08T11:32:00;98914.53;;;18.80;41.48
27685;BME280;46113;50.130;8.526;2023-08-08T11:34:33;98911.19;;;18.78;39.57
27685;BME280;46113;50.130;8.526;2023-08-08T11:37:00;98917.47;;;18.87;39.25
27685;BME280;46113;50.130;8.526;2023-08-08T11:39:27;98911.34;;;19.49;40.91
27685;BME280;46113;50.130;8.526;2023-08-08T11:41:55;98917.78;;;20.01;43.54
27685;BME280;46113;50.130;8.526;2023-08-08T11:44:25;98904.69;;;19.53;38.30
27685;BME280;46113;50.130;8.526;2023-08-08T11:46:52;98900.22;;;19.62;38.19
27685;BME280;46113;50.130;8.526;2023-08-08T11:49:19;98909.13;;;20.16;40.38
27685;BME280;46113;50.130;8.526;2023-08-08T11:51:46;98902.25;;;19.87;40.06
27685;BME280;46113;50.130;8.526;2023-08-08T11:54:13;98891.59;;;19.77;39.76
27685;BME280;46113;50.130;8.526;2023-08-08T11:56:40;98905.47;;;18.91;39.19
27685;BME280;46113;50.130;8.526;2023-08-08T11:59:07;98902.13;;;19.25;40.97
27685;BME280;46113;50.130;8.526;2023-08-08T12:01:35;98902.03;;;19.17;41.80
27685;BME280;46113;50.130;8.526;2023-08-08T12:04:06;98901.13;;;18.62;40.65
27685;BME280;46113;50.130;8.526;2023-08-08T12:06:36;98902.91;;;18.43;43.15
27685;BME280;46113;50.130;8.526;2023-08-08T12:09:06;98895.44;;;18.47;40.77
27685;BME280;46113;50.130;8.526;2023-08-08T12:11:36;98911.38;;;18.66;43.61
27685;BME280;46113;50.130;8.526;2023-08-08T12:14:06;98903.56;;;18.55;41.13
27685;BME280;46113;50.130;8.526;2023-08-08T12:16:42;98909.38;;;18.50;42.15
27685;BME280;46113;50.130;8.526;2023-08-08T12:19:10;98908.44;;;18.88;42.23
27685;BME280;46113;50.130;8.526;2023-08-08T12:22:02;98904.88;;;19.15;41.46
27685;BME280;46113;50.130;8.526;2023-08-08T12:24:47;98903.19;;;19.14;40.65
27685;BME280;46113;50.130;8.526;2023-08-08T12:27:20;98903.94;;;18.88;40.33
27685;BME280;46113;50.130;8.526;2023-08-08T12:29:47;98900.75;;;18.75;42.22
27685;BME280;46113;50.130;8.526;2023-08-08T12:32:14;98905.38;;;19.01;40.09
27685;BME280;46113;50.130;8.526;2023-08-08T12:34:40;98904.00;;;19.15;41.31
27685;BME280;46113;50.130;8.526;2023-08-08T12:37:07;98913.44;;;19.37;41.99
27685;BME280;46113;50.130;8.526;2023-08-08T12:39:33;98912.88;;;18.79;37.93
27685;BME280;46113;50.130;8.526;2023-08-08T12:42:01;98910.88;;;18.99;40.58
27685;BME280;46113;50.130;8.526;2023-08-08T12:44:27;98912.00;;;18.78;37.48
27685;BME280;46113;50.130;8.526;2023-08-08T12:46:54;98902.66;;;19.29;39.97
27685;BME280;46113;50.130;8.526;2023-08-08T12:49:21;98897.00;;;19.58;39.71
27685;BME280;46113;50.130;8.526;2023-08-08T12:51:50;98911.06;;;19.52;39.06
27685;BME280;46113;50.130;8.526;2023-08-08T12:54:17;98912.09;;;19.59;39.91
27685;BME280;46113;50.130;8.526;2023-08-08T12:56:43;98917.84;;;19.20;37.73
27685;BME280;46113;50.130;8.526;2023-08-08T12:59:10;98915.91;;;18.38;36.54
27685;BME280;46113;50.130;8.526;2023-08-08T13:01:37;98913.06;;;19.14;38.81
27685;BME280;46113;50.130;8.526;2023-08-08T13:04:04;98914.69;;;18.97;36.96
27685;BME280;46113;50.130;8.526;2023-08-08T13:06:46;98906.56;;;19.16;38.32
27685;BME280;46113;50.130;8.526;2023-08-08T13:09:13;98908.38;;;18.98;37.25
27685;BME280;46113;50.130;8.526;2023-08-08T13:11:41;98904.34;;;19.12;36.41
27685;BME280;46113;50.130;8.526;2023-08-08T13:14:08;98911.25;;;18.86;36.83
27685;BME280;46113;50.130;8.526;2023-08-08T13:16:35;98898.09;;;18.75;38.02
27685;BME280;46113;50.130;8.526;2023-08-08T13:19:02;98918.88;;;19.27;39.24
27685;BME280;46113;50.130;8.526;2023-08-08T13:21:30;98903.66;;;19.28;35.98
27685;BME280;46113;50.130;8.526;2023-08-08T13:23:57;98901.38;;;18.87;36.22
27685;BME280;46113;50.130;8.526;2023-08-08T13:26:24;98900.78;;;19.29;37.74